Time;durP1;ratioP1;P1;durP2;ratioP2;P2;SDS_P1;SDS_P2;PMS_P1;PMS_P2;Temp;Humidity;BMP_temperature;BMP_pressure;BME280_temperature;BME280_humidity;BME280_pressure;Samples;Min_cycle;Max_cycle;Signal;HPM_P1;HPM_P2
2023/10/21 00:00:49;;;;;;;4.43;2.87;;;;;;;12.50;100.00;97193.69;4986609;28;20237;-74
2023/10/21 00:03:15;;;;;;;4.90;3.30;;;;;;;12.55;100.00;97194.81;5002262;28;20724;-75
2023/10/21 00:05:40;;;;;;;3.97;2.80;;;;;;;12.51;100.00;97196.09;4994394;28;20184;-74
2023/10/21 00:08:06;;;;;;;4.13;2.87;;;;;;;12.35;100.00;97201.34;4994403;28;20194;-72
2023/10/21 00:10:31;;;;;;;4.27;2.37;;;;;;;12.35;100.00;97209.06;4986163;28;20682;-73
2023/10/21 00:12:56;;;;;;;2.33;2.00;;;;;;;12.23;100.00;97199.13;5004601;28;20188;-73
2023/10/21 00:15:21;;;;;;;3.63;2.40;;;;;;;12.19;100.00;97186.72;4993175;28;20238;-75
2023/10/21 00:17:47;;;;;;;4.33;1.93;;;;;;;12.19;100.00;97179.00;4990806;28;20328;-74
2023/10/21 00:20:14;;;;;;;5.13;1.77;;;;;;;12.32;100.00;97181.06;4976679;28;20981;-76
2023/10/21 00:22:39;;;;;;;2.20;2.00;;;;;;;12.36;100.00;97190.84;5006291;28;20222;-77
2023/10/21 00:25:05;;;;;;;2.73;1.90;;;;;;;12.35;100.00;97196.19;4992952;28;20250;-76
2023/10/21 00:27:30;;;;;;;1.87;1.73;;;;;;;12.33;100.00;97188.63;4992703;28;20175;-77
2023/10/21 00:29:55;;;;;;;2.47;2.27;;;;;;;12.32;100.00;97199.91;4994107;28;20176;-77
2023/10/21 00:32:21;;;;;;;1.80;1.70;;;;;;;12.29;100.00;97200.22;4996597;28;20226;-76
2023/10/21 00:34:46;;;;;;;2.23;1.63;;;;;;;12.31;100.00;97194.91;4993621;28;20181;-75
2023/10/21 00:37:11;;;;;;;2.80;1.60;;;;;;;12.36;100.00;97196.00;4992202;28;20187;-74
2023/10/21 00:39:38;;;;;;;1.70;1.60;;;;;;;12.46;100.00;97200.19;4992650;28;20690;-75
2023/10/21 00:42:05;;;;;;;2.53;2.20;;;;;;;12.39;100.00;97202.59;4968722;28;20297;-74
2023/10/21 00:44:31;;;;;;;5.53;2.17;;;;;;;12.26;100.00;97196.19;4993686;28;20183;-74
2023/10/21 00:46:59;;;;;;;6.90;1.80;;;;;;;12.34;100.00;97192.00;4992198;28;20618;-73
2023/10/21 00:49:25;;;;;;;4.87;1.90;;;;;;;12.38;100.00;97194.06;5001520;28;20183;-74
2023/10/21 00:51:50;;;;;;;2.57;1.90;;;;;;;12.37;100.00;97197.63;4984579;28;20238;-73
2023/10/21 00:54:17;;;;;;;2.60;1.47;;;;;;;12.35;100.00;97193.59;4992347;28;20179;-73
2023/10/21 00:56:43;;;;;;;5.63;2.10;;;;;;;12.27;100.00;97190.06;4991885;28;20176;-73
2023/10/21 00:59:11;;;;;;;3.30;1.90;;;;;;;12.32;100.00;97191.38;4993611;28;20180;-73
2023/10/21 01:01:37;;;;;;;1.67;1.50;;;;;;;12.34;100.00;97197.13;4984209;28;20286;-73
2023/10/21 01:04:03;;;;;;;2.20;1.53;;;;;;;12.33;100.00;97192.94;4996707;28;20171;-74
2023/10/21 01:06:29;;;;;;;4.13;1.47;;;;;;;12.30;100.00;97186.34;4991826;28;20183;-73
2023/10/21 01:08:54;;;;;;;1.93;1.60;;;;;;;12.38;100.00;97198.44;4990903;28;20569;-73
2023/10/21 01:11:19;;;;;;;2.93;1.30;;;;;;;12.41;100.00;97191.16;4992508;28;20218;-72
2023/10/21 01:13:45;;;;;;;2.97;1.10;;;;;;;12.40;100.00;97191.31;4998057;28;20187;-72
2023/10/21 01:16:10;;;;;;;1.67;1.37;;;;;;;12.40;100.00;97196.47;4992886;28;20194;-72
2023/10/21 01:18:38;;;;;;;1.63;1.30;;;;;;;12.42;100.00;97194.53;4991517;28;20175;-71
2023/10/21 01:21:03;;;;;;;4.10;1.63;;;;;;;12.43;100.00;97202.09;4984448;28;20253;-74
2023/10/21 01:23:30;;;;;;;2.47;1.40;;;;;;;12.42;100.00;97195.34;4998906;28;20627;-74
2023/10/21 01:25:55;;;;;;;1.70;1.43;;;;;;;12.41;100.00;97195.50;4991074;28;20738;-74
2023/10/21 01:28:20;;;;;;;1.43;1.30;;;;;;;12.35;100.00;97191.03;4991631;28;20270;-74
2023/10/21 01:30:46;;;;;;;2.77;1.80;;;;;;;12.32;100.00;97202.47;4987424;28;20227;-72
2023/10/21 01:33:11;;;;;;;2.13;1.73;;;;;;;12.26;100.00;97193.63;4989962;28;20180;-71
2023/10/21 01:35:37;;;;;;;4.00;1.40;;;;;;;12.27;100.00;97189.28;4992885;28;20646;-73
2023/10/21 01:38:03;;;;;;;3.30;1.50;;;;;;;12.26;100.00;97198.78;4992984;28;20187;-74
2023/10/21 01:40:28;;;;;;;1.30;1.20;;;;;;;12.24;100.00;97200.72;4984095;28;20222;-74
2023/10/21 01:42:53;;;;;;;1.80;1.40;;;;;;;12.22;100.00;97205.22;4990678;28;20183;-72
2023/10/21 01:45:18;;;;;;;2.50;1.50;;;;;;;12.22;100.00;97202.66;4992525;28;20228;-73
2023/10/21 01:47:44;;;;;;;3.80;1.30;;;;;;;12.26;100.00;97211.66;4991508;28;20694;-75
2023/10/21 01:50:09;;;;;;;88.17;14.43;;;;;;;12.25;100.00;97210.06;4976575;28;20310;-74
2023/10/21 01:52:36;;;;;;;35.50;4.00;;;;;;;12.27;100.00;97220.22;4991791;28;20203;-73
2023/10/21 01:55:05;;;;;;;2.77;2.30;;;;;;;12.28;100.00;97229.56;4989251;28;20179;-74
2023/10/21 01:57:32;;;;;;;2.10;1.27;;;;;;;12.29;100.00;97238.88;4997483;28;20180;-74
2023/10/21 02:00:04;;;;;;;1.13;1.00;;;;;;;12.27;100.00;97245.97;4989834;28;20207;-73
2023/10/21 02:02:29;;;;;;;1.40;1.27;;;;;;;12.30;100.00;97250.00;4962716;28;20235;-74
2023/10/21 02:04:55;;;;;;;2.27;1.03;;;;;;;12.34;100.00;97259.81;4990120;28;20393;-75
2023/10/21 02:07:20;;;;;;;1.43;1.20;;;;;;;12.33;100.00;97254.81;4989923;28;20183;-74
2023/10/21 02:09:46;;;;;;;0.90;0.90;;;;;;;12.36;100.00;97260.44;4991322;28;20277;-74
2023/10/21 02:12:11;;;;;;;2.93;1.07;;;;;;;12.38;100.00;97265.47;4995913;28;20336;-73
2023/10/21 02:14:36;;;;;;;2.23;0.97;;;;;;;12.43;100.00;97265.75;4991819;28;20202;-73
2023/10/21 02:17:02;;;;;;;1.73;0.60;;;;;;;12.51;100.00;97286.34;4990986;28;20241;-72
2023/10/21 02:19:27;;;;;;;1.23;0.57;;;;;;;12.52;100.00;97284.59;4992319;28;20171;-73
2023/10/21 02:21:52;;;;;;;0.60;0.50;;;;;;;12.57;100.00;97284.91;4983492;28;20800;-73
2023/10/21 02:24:17;;;;;;;1.90;0.50;;;;;;;12.57;100.00;97293.41;4971382;28;20554;-74
2023/10/21 02:26:43;;;;;;;0.50;0.50;;;;;;;12.62;100.00;97297.28;4989564;28;20188;-74
2023/10/21 02:29:08;;;;;;;0.43;0.40;;;;;;;12.61;100.00;97300.84;4992025;28;20179;-75
2023/10/21 02:31:34;;;;;;;1.17;0.30;;;;;;;12.61;100.00;97300.84;4983346;28;20686;-74
2023/10/21 02:33:59;;;;;;;0.30;0.30;;;;;;;12.65;100.00;97304.69;4990756;28;20172;-73
2023/10/21 02:36:25;;;;;;;2.07;0.30;;;;;;;12.59;100.00;97301.00;4991928;28;20188;-73
2023/10/21 02:38:51;;;;;;;3.83;0.50;;;;;;;12.63;100.00;97309.19;4990491;28;20172;-73
2023/10/21 02:41:17;;;;;;;1.57;0.40;;;;;;;12.63;100.00;97327.25;4983780;28;20296;-73
2023/10/21 02:43:42;;;;;;;0.30;0.30;;;;;;;12.66;100.00;97332.09;4996955;28;20221;-74
2023/10/21 02:46:12;;;;;;;1.47;0.30;;;;;;;12.67;100.00;97354.34;4990593;28;20194;-72
2023/10/21 02:48:38;;;;;;;0.30;0.30;;;;;;;12.62;100.00;97359.19;4990332;28;20546;-72
2023/10/21 02:51:15;;;;;;;1.03;0.97;;;;;;;12.65;100.00;97361.44;4983794;28;20230;-73
2023/10/21 02:53:41;;;;;;;0.33;0.33;;;;;;;12.64;100.00;97388.19;4989922;28;20270;-73
2023/10/21 02:56:07;;;;;;;0.30;0.30;;;;;;;12.65;100.00;97400.94;4990618;28;20176;-71
2023/10/21 02:58:36;;;;;;;1.27;0.30;;;;;;;12.61;100.00;97406.56;4991401;28;20194;-72
2023/10/21 03:01:13;;;;;;;0.40;0.40;;;;;;;12.60;100.00;97421.22;4986526;28;20261;-72
2023/10/21 03:03:39;;;;;;;1.50;0.40;;;;;;;12.58;100.00;97442.03;4982159;28;20326;-73
2023/10/21 03:06:04;;;;;;;0.47;0.40;;;;;;;12.56;100.00;97448.31;4995509;28;20616;-71
2023/10/21 03:08:29;;;;;;;0.30;0.30;;;;;;;12.56;100.00;97462.00;4995697;28;20172;-71
2023/10/21 03:10:55;;;;;;;0.47;0.40;;;;;;;12.59;100.00;97460.88;4991796;28;20672;-73
2023/10/21 03:13:20;;;;;;;0.30;0.30;;;;;;;12.58;100.00;97472.16;5003698;28;20188;-71
2023/10/21 03:15:46;;;;;;;0.37;0.33;;;;;;;12.53;100.00;97472.63;4995545;28;20194;-70
2023/10/21 03:18:11;;;;;;;1.77;0.50;;;;;;;12.51;100.00;97494.41;4983630;28;20175;-69
2023/10/21 03:20:37;;;;;;;0.50;0.30;;;;;;;12.50;100.00;97501.34;4989396;28;20258;-70
2023/10/21 03:23:03;;;;;;;0.90;0.40;;;;;;;12.49;100.00;97516.94;4993667;28;20180;-70
2023/10/21 03:25:28;;;;;;;1.13;0.60;;;;;;;12.47;100.00;97524.06;4994966;28;20647;-73
2023/10/21 03:27:54;;;;;;;1.70;0.50;;;;;;;12.50;100.00;97524.53;4994078;28;20180;-70
2023/10/21 03:30:19;;;;;;;0.73;0.40;;;;;;;12.41;100.00;97534.00;4965733;28;20318;-71
2023/10/21 03:32:44;;;;;;;0.90;0.43;;;;;;;12.50;100.00;97539.19;5007424;28;20686;-69
2023/10/21 03:35:09;;;;;;;0.43;0.43;;;;;;;12.44;100.00;97550.97;4993706;28;20195;-71
2023/10/21 03:37:35;;;;;;;0.33;0.30;;;;;;;12.50;100.00;97567.56;4994975;28;20213;-71
2023/10/21 03:40:00;;;;;;;0.50;0.50;;;;;;;12.53;100.00;97569.84;4994984;28;20190;-70
2023/10/21 03:42:26;;;;;;;1.13;0.57;;;;;;;12.54;100.00;97582.56;4996205;28;20285;-71
2023/10/21 03:44:51;;;;;;;4.27;0.37;;;;;;;12.57;100.00;97597.69;4986570;28;20580;-69
2023/10/21 03:47:17;;;;;;;0.80;0.40;;;;;;;12.64;100.00;97615.94;4994880;28;20208;-69
2023/10/21 03:49:42;;;;;;;0.50;0.50;;;;;;;12.67;100.00;97613.03;4994955;28;20652;-69
2023/10/21 03:52:07;;;;;;;0.90;0.60;;;;;;;12.62;100.00;97625.59;4999160;28;20257;-68
2023/10/21 03:54:32;;;;;;;0.50;0.47;;;;;;;12.63;100.00;97632.38;4994516;28;20191;-68
2023/10/21 03:56:58;;;;;;;0.50;0.50;;;;;;;12.73;100.00;97639.97;4994494;28;20651;-68
2023/10/21 03:59:23;;;;;;;0.53;0.53;;;;;;;12.69;100.00;97649.81;4993513;28;20269;-70
2023/10/21 04:01:48;;;;;;;0.70;0.60;;;;;;;12.73;100.00;97651.09;4997428;28;20372;-70
2023/10/21 04:04:14;;;;;;;2.27;0.60;;;;;;;12.84;100.00;97660.31;4996482;28;20565;-71
2023/10/21 04:06:39;;;;;;;0.60;0.60;;;;;;;12.87;100.00;97669.50;4992804;28;20202;-70
2023/10/21 04:09:04;;;;;;;0.70;0.57;;;;;;;12.85;100.00;97674.84;4994516;28;20175;-69
2023/10/21 04:11:30;;;;;;;1.37;0.80;;;;;;;12.90;100.00;97684.69;4984673;28;20737;-69
2023/10/21 04:13:55;;;;;;;0.60;0.60;;;;;;;12.86;100.00;97691.09;4998991;28;20308;-70
2023/10/21 04:16:20;;;;;;;3.27;0.90;;;;;;;12.87;100.00;97696.09;4994173;28;20206;-70
2023/10/21 04:18:46;;;;;;;1.20;1.17;;;;;;;12.91;100.00;97697.44;4994084;28;20191;-70
2023/10/21 04:21:11;;;;;;;0.57;0.57;;;;;;;12.83;100.00;97704.34;4992680;28;20242;-70
2023/10/21 04:23:36;;;;;;;1.67;0.90;;;;;;;12.84;100.00;97714.50;5000189;28;20196;-69
2023/10/21 04:26:03;;;;;;;1.80;1.07;;;;;;;12.79;100.00;97723.66;4992668;28;20461;-71
2023/10/21 04:28:28;;;;;;;1.43;1.33;;;;;;;12.85;100.00;97720.44;4992856;28;20218;-72
2023/10/21 04:30:54;;;;;;;3.73;1.30;;;;;;;12.83;100.00;97720.63;4990547;28;20250;-72
2023/10/21 04:33:19;;;;;;;1.37;1.10;;;;;;;12.79;100.00;97719.31;5001788;28;20233;-71
2023/10/21 04:35:44;;;;;;;1.80;1.37;;;;;;;12.72;100.00;97736.38;4992407;28;20647;-71
2023/10/21 04:38:12;;;;;;;1.10;1.10;;;;;;;12.69;100.00;97726.34;4993968;28;20184;-71
2023/10/21 04:40:37;;;;;;;1.73;1.10;;;;;;;12.75;100.00;97736.06;4985167;28;20699;-71
2023/10/21 04:43:03;;;;;;;0.93;0.90;;;;;;;12.74;100.00;97724.94;4992198;28;20261;-70
2023/10/21 04:45:28;;;;;;;1.67;1.17;;;;;;;12.72;100.00;97739.75;4992213;28;20191;-72
2023/10/21 04:47:54;;;;;;;1.63;1.00;;;;;;;12.62;100.00;97741.66;4993921;28;20184;-71
2023/10/21 04:50:19;;;;;;;0.90;0.60;;;;;;;12.59;100.00;97749.72;4985855;28;20183;-70
2023/10/21 04:52:45;;;;;;;0.70;0.70;;;;;;;12.54;100.00;97749.34;5005879;28;20218;-70
2023/10/21 04:55:10;;;;;;;1.47;1.20;;;;;;;12.53;100.00;97756.28;4993582;28;20175;-69
2023/10/21 04:57:36;;;;;;;1.23;1.13;;;;;;;12.51;100.00;97754.81;4993702;28;20651;-69
2023/10/21 05:00:02;;;;;;;0.60;0.60;;;;;;;12.45;100.00;97758.00;4985960;28;20171;-69
2023/10/21 05:02:28;;;;;;;0.80;0.80;;;;;;;12.35;100.00;97758.91;4981749;28;20239;-69
2023/10/21 05:04:53;;;;;;;1.80;0.87;;;;;;;12.33;100.00;97765.19;4993481;28;20255;-69
2023/10/21 05:07:19;;;;;;;3.50;1.23;;;;;;;12.28;100.00;97773.41;4993328;28;20274;-71
2023/10/21 05:09:44;;;;;;;1.30;1.03;;;;;;;12.24;100.00;97784.94;4991538;28;20182;-70
2023/10/21 05:12:10;;;;;;;2.10;0.90;;;;;;;12.23;100.00;97791.88;4983638;28;20309;-69
2023/10/21 05:14:36;;;;;;;1.43;1.00;;;;;;;12.06;100.00;97790.16;4993201;28;20179;-70
2023/10/21 05:17:01;;;;;;;1.83;1.03;;;;;;;12.09;100.00;97797.56;4993325;28;20191;-69
2023/10/21 05:19:26;;;;;;;2.00;1.20;;;;;;;12.08;100.00;97799.34;4993183;28;20585;-70
2023/10/21 05:21:52;;;;;;;2.40;1.37;;;;;;;12.01;100.00;97800.91;4996199;28;20234;-70
2023/10/21 05:24:17;;;;;;;2.13;1.03;;;;;;;12.02;100.00;97810.25;4993251;28;20183;-70
2023/10/21 05:26:42;;;;;;;1.50;1.20;;;;;;;11.97;100.00;97825.34;4993121;28;20202;-69
2023/10/21 05:29:07;;;;;;;5.17;1.47;;;;;;;11.99;100.00;97822.63;4992902;28;20929;-69
2023/10/21 05:31:33;;;;;;;1.43;1.10;;;;;;;12.00;100.00;97832.78;4994005;28;20280;-69
2023/10/21 05:33:59;;;;;;;1.73;1.30;;;;;;;11.97;100.00;97834.84;4994935;28;20179;-68
2023/10/21 05:36:25;;;;;;;2.47;1.30;;;;;;;12.01;100.00;97836.97;4992961;28;20226;-71
2023/10/21 05:38:51;;;;;;;2.80;1.47;;;;;;;11.94;100.00;97849.63;4991195;28;20179;-69
2023/10/21 05:41:16;;;;;;;1.30;1.20;;;;;;;11.94;100.00;97859.09;4982365;28;20318;-69
2023/10/21 05:43:41;;;;;;;3.40;1.70;;;;;;;11.87;100.00;97863.22;4991573;28;20263;-68
2023/10/21 05:46:07;;;;;;;2.77;1.47;;;;;;;11.84;100.00;97871.25;4992851;28;20635;-69
2023/10/21 05:48:32;;;;;;;2.70;1.80;;;;;;;11.85;100.00;97876.25;4992305;28;20179;-68
2023/10/21 05:51:01;;;;;;;3.80;1.50;;;;;;;11.75;100.00;97880.66;4989483;28;20250;-69
2023/10/21 05:53:27;;;;;;;1.80;1.53;;;;;;;11.82;100.00;97889.44;4990642;28;20183;-70
2023/10/21 05:55:55;;;;;;;1.43;1.33;;;;;;;11.84;100.00;97894.44;4992743;28;20241;-69
2023/10/21 05:58:20;;;;;;;2.07;1.60;;;;;;;11.84;100.00;97897.00;5007022;28;20194;-70
2023/10/21 06:00:46;;;;;;;2.93;1.23;;;;;;;11.78;100.00;97906.13;4988290;28;20682;-70
2023/10/21 06:03:11;;;;;;;2.57;1.70;;;;;;;11.81;100.00;97925.63;5000757;28;20239;-70
2023/10/21 06:05:36;;;;;;;1.97;1.33;;;;;;;11.82;100.00;97935.81;4992560;28;20683;-70
2023/10/21 06:08:02;;;;;;;2.43;1.60;;;;;;;11.84;100.00;97933.06;4990659;28;20658;-69
2023/10/21 06:10:28;;;;;;;3.43;1.13;;;;;;;11.92;100.00;97943.44;4985474;28;20218;-69
2023/10/21 06:12:54;;;;;;;1.63;1.23;;;;;;;11.93;100.00;97951.06;5003428;28;20227;-70
2023/10/21 06:15:19;;;;;;;1.00;0.90;;;;;;;12.11;100.00;97947.72;4992393;28;20206;-69
2023/10/21 06:17:45;;;;;;;3.50;1.00;;;;;;;12.13;100.00;97957.88;4990802;28;20186;-70
2023/10/21 06:20:11;;;;;;;1.13;0.83;;;;;;;12.15;100.00;97956.75;4981947;28;20669;-70
2023/10/21 06:22:37;;;;;;;1.07;0.90;;;;;;;12.20;100.00;97964.06;4989867;28;20282;-70
2023/10/21 06:25:02;;;;;;;2.67;1.00;;;;;;;12.32;100.00;97978.34;4992419;28;20585;-70
2023/10/21 06:27:27;;;;;;;1.50;0.80;;;;;;;12.41;100.00;97976.66;4991931;28;20186;-70
2023/10/21 06:29:53;;;;;;;0.60;0.60;;;;;;;12.62;100.00;97985.88;4990949;28;20190;-70
2023/10/21 06:32:18;;;;;;;0.93;0.60;;;;;;;12.68;100.00;97986.06;4996543;28;20230;-71
2023/10/21 06:34:43;;;;;;;0.60;0.60;;;;;;;12.70;100.00;97978.19;4993792;28;20183;-70
2023/10/21 06:37:09;;;;;;;0.80;0.50;;;;;;;12.73;100.00;97995.94;4996940;28;20178;-70
2023/10/21 06:39:35;;;;;;;0.57;0.57;;;;;;;12.83;100.00;97998.44;4997294;28;20564;-71
2023/10/21 06:42:00;;;;;;;0.63;0.63;;;;;;;12.91;100.00;98004.47;5002654;28;20237;-71
2023/10/21 06:44:25;;;;;;;3.00;0.80;;;;;;;12.95;100.00;98017.88;4997071;28;20210;-71
2023/10/21 06:46:51;;;;;;;0.53;0.53;;;;;;;12.98;100.00;98022.75;4996930;28;20637;-72
2023/10/21 06:49:16;;;;;;;0.53;0.53;;;;;;;12.96;100.00;98036.75;4998588;28;20541;-72
2023/10/21 06:51:42;;;;;;;0.53;0.53;;;;;;;12.96;100.00;98035.00;5000213;28;20830;-73
2023/10/21 06:54:07;;;;;;;0.70;0.70;;;;;;;12.91;100.00;98039.78;5001217;28;20191;-74
2023/10/21 06:56:33;;;;;;;0.50;0.50;;;;;;;12.88;100.00;98050.41;4998505;28;20635;-75
2023/10/21 06:58:58;;;;;;;0.83;0.60;;;;;;;12.79;100.00;98059.84;4998520;28;20179;-74
2023/10/21 07:01:24;;;;;;;0.80;0.50;;;;;;;12.76;100.00;98060.13;4998039;28;20325;-75
2023/10/21 07:03:49;;;;;;;1.20;0.70;;;;;;;12.82;100.00;98064.69;5003279;28;20183;-74
2023/10/21 07:06:16;;;;;;;0.50;0.50;;;;;;;12.85;100.00;98067.00;4996773;28;20179;-71
2023/10/21 07:08:42;;;;;;;1.20;0.53;;;;;;;13.37;100.00;98070.59;4996971;28;20179;-71
2023/10/21 07:11:07;;;;;;;1.47;0.80;;;;;;;14.22;100.00;98079.47;4989809;28;20313;-70
2023/10/21 07:13:33;;;;;;;1.90;0.47;;;;;;;15.01;100.00;98074.78;4996740;28;20649;-70
2023/10/21 07:16:05;;;;;;;1.27;0.50;;;;;;;15.08;100.00;98074.94;4998176;28;20651;-69
2023/10/21 07:18:30;;;;;;;0.50;0.40;;;;;;;15.34;100.00;98085.09;4996810;28;20176;-70
2023/10/21 07:20:57;;;;;;;1.57;0.57;;;;;;;15.18;100.00;98085.91;4994730;28;20320;-70
2023/10/21 07:23:22;;;;;;;0.83;0.63;;;;;;;14.58;100.00;98097.34;4996202;28;20187;-70
2023/10/21 07:25:48;;;;;;;1.43;0.70;;;;;;;14.57;100.00;98103.47;4998230;28;20183;-70
2023/10/21 07:28:13;;;;;;;1.20;0.50;;;;;;;14.39;100.00;98106.16;4998248;28;20531;-69
2023/10/21 07:30:38;;;;;;;0.60;0.60;;;;;;;14.25;100.00;98107.59;4969143;28;20232;-69
2023/10/21 07:33:04;;;;;;;1.57;0.70;;;;;;;13.85;100.00;98110.66;5008230;28;20538;-71
2023/10/21 07:35:29;;;;;;;1.17;0.60;;;;;;;13.80;100.00;98112.88;4997844;28;20623;-70
2023/10/21 07:37:54;;;;;;;3.13;0.67;;;;;;;13.67;100.00;98107.31;4996996;28;20666;-71
2023/10/21 07:40:20;;;;;;;0.87;0.57;;;;;;;13.56;100.00;98116.94;4988931;28;20225;-70
2023/10/21 07:42:46;;;;;;;2.23;0.73;;;;;;;13.43;100.00;98126.03;4996057;28;20215;-70
2023/10/21 07:45:14;;;;;;;1.70;0.60;;;;;;;13.43;100.00;98129.41;4996681;28;20692;-70
2023/10/21 07:47:40;;;;;;;2.47;0.73;;;;;;;13.49;100.00;98136.56;4994433;28;20183;-70
2023/10/21 07:50:07;;;;;;;0.90;0.53;;;;;;;13.58;100.00;98144.38;4984910;28;20179;-69
2023/10/21 07:52:35;;;;;;;0.60;0.43;;;;;;;13.53;100.00;98150.00;5008717;28;20199;-70
2023/10/21 07:55:01;;;;;;;2.27;0.87;;;;;;;13.61;100.00;98146.69;4994754;28;20643;-69
2023/10/21 07:57:26;;;;;;;1.43;0.60;;;;;;;13.69;100.00;98154.47;4993554;28;20274;-70
2023/10/21 07:59:52;;;;;;;4.23;0.63;;;;;;;13.77;100.00;98166.63;4994448;28;20183;-70
2023/10/21 08:02:17;;;;;;;1.50;0.83;;;;;;;13.74;100.00;98165.16;4999440;28;20702;-70
2023/10/21 08:04:44;;;;;;;0.97;0.60;;;;;;;13.72;100.00;98162.72;4994113;28;20233;-71
2023/10/21 08:07:10;;;;;;;0.97;0.90;;;;;;;13.70;100.00;98169.00;4993567;28;20191;-71
2023/10/21 08:09:37;;;;;;;2.13;0.70;;;;;;;13.76;100.00;98172.78;4993121;28;20287;-70
2023/10/21 08:12:03;;;;;;;0.67;0.67;;;;;;;13.81;100.00;98186.06;4999033;28;20231;-71
2023/10/21 08:14:30;;;;;;;2.20;0.67;;;;;;;14.06;100.00;98187.00;4992835;28;20871;-71
2023/10/21 08:16:55;;;;;;;1.03;0.70;;;;;;;14.28;100.00;98198.59;4994503;28;20627;-72
2023/10/21 08:19:22;;;;;;;0.90;0.47;;;;;;;14.75;100.00;98201.72;4994182;28;20184;-71
2023/10/21 08:21:47;;;;;;;2.90;0.60;;;;;;;15.28;100.00;98210.91;4985625;28;20231;-71
2023/10/21 08:24:13;;;;;;;0.70;0.50;;;;;;;15.59;100.00;98212.88;4995947;28;20194;-69
2023/10/21 08:26:38;;;;;;;2.30;0.60;;;;;;;15.54;100.00;98211.72;4994377;28;20191;-72
2023/10/21 08:29:03;;;;;;;1.30;0.50;;;;;;;15.40;100.00;98228.72;4992900;28;20180;-69
2023/10/21 08:31:29;;;;;;;5.00;1.13;;;;;;;15.47;100.00;98235.69;4994739;28;20637;-71
2023/10/21 08:33:54;;;;;;;2.90;0.60;;;;;;;15.43;100.00;98236.97;4997842;28;20183;-70
2023/10/21 08:36:21;;;;;;;1.17;0.63;;;;;;;15.31;100.00;98252.00;4994080;28;20526;-71
2023/10/21 08:38:47;;;;;;;2.03;0.93;;;;;;;15.14;100.00;98253.78;4995254;28;20191;-71
2023/10/21 08:41:13;;;;;;;1.27;0.90;;;;;;;14.92;100.00;98265.53;4992969;28;20322;-71
2023/10/21 08:43:45;;;;;;;4.20;1.13;;;;;;;14.83;100.00;98261.28;4999533;28;20271;-71
2023/10/21 08:46:10;;;;;;;5.30;1.03;;;;;;;14.69;100.00;98258.31;4992675;28;20292;-72
2023/10/21 08:48:36;;;;;;;1.77;0.90;;;;;;;14.94;100.00;98263.56;4992048;28;20168;-70
2023/10/21 08:51:02;;;;;;;2.83;1.10;;;;;;;16.16;100.00;98263.06;4985525;28;20234;-71
2023/10/21 08:53:31;;;;;;;2.60;0.90;;;;;;;17.78;100.00;98257.44;5001131;28;20175;-70
2023/10/21 08:55:57;;;;;;;2.17;0.93;;;;;;;19.84;100.00;98268.00;4993861;28;20342;-70
2023/10/21 08:58:28;;;;;;;1.47;0.80;;;;;;;21.54;90.08;98274.66;4993422;28;20176;-70
2023/10/21 09:00:53;;;;;;;1.00;0.73;;;;;;;21.65;85.47;98272.50;4990097;28;20352;-70
2023/10/21 09:03:19;;;;;;;3.10;0.90;;;;;;;20.63;88.22;98273.94;4991344;28;20267;-72
2023/10/21 09:06:04;;;;;;;1.00;0.70;;;;;;;20.61;85.97;98280.38;4992327;28;20191;-72
2023/10/21 09:08:34;;;;;;;3.20;0.90;;;;;;;19.85;92.05;98297.53;4980276;28;20199;-72
2023/10/21 09:11:00;;;;;;;2.50;0.60;;;;;;;20.24;92.71;98298.03;4984823;28;20235;-72
2023/10/21 09:13:33;;;;;;;1.83;0.80;;;;;;;21.03;82.67;98314.34;4991401;28;20628;-71
2023/10/21 09:15:58;;;;;;;3.10;1.03;;;;;;;20.90;80.42;98321.13;4991961;28;20666;-70
2023/10/21 09:18:23;;;;;;;3.55;0.88;;;;;;;21.18;75.78;98322.06;4993428;28;20191;-70
2023/10/21 09:20:51;;;;;;;2.83;0.90;;;;;;;21.87;69.29;98328.88;4988655;28;20298;-70
2023/10/21 09:23:17;;;;;;;4.65;0.95;;;;;;;22.61;61.23;98317.53;5001561;28;20275;-70
2023/10/21 09:25:53;;;;;;;2.95;1.02;;;;;;;23.19;57.43;98322.78;4992901;28;20179;-70
2023/10/21 09:28:23;;;;;;;1.17;0.60;;;;;;;23.79;53.16;98318.22;4991941;28;20216;-70
2023/10/21 09:30:58;;;;;;;1.73;0.60;;;;;;;23.90;50.97;98325.38;4984524;28;20600;-68
2023/10/21 09:33:26;;;;;;;0.68;0.57;;;;;;;23.67;48.15;98325.97;5000649;28;20277;-70
2023/10/21 09:36:04;;;;;;;1.13;0.68;;;;;;;22.20;56.51;98330.69;4991242;28;20557;-70
2023/10/21 09:38:37;;;;;;;1.67;0.82;;;;;;;23.64;52.33;98332.47;4990722;28;20187;-71
2023/10/21 09:41:11;;;;;;;1.88;0.73;;;;;;;24.41;50.78;98343.78;4973103;28;20802;-69
2023/10/21 09:43:38;;;;;;;2.47;1.10;;;;;;;25.51;48.59;98344.00;4987977;28;20562;-69
2023/10/21 09:46:07;;;;;;;1.75;0.70;;;;;;;24.62;46.70;98359.16;4992742;28;20187;-69
2023/10/21 09:48:38;;;;;;;2.88;0.90;;;;;;;24.40;48.30;98366.63;5007109;28;20550;-69
2023/10/21 09:51:06;;;;;;;3.00;1.02;;;;;;;24.40;50.01;98369.28;4984193;28;20242;-69
2023/10/21 09:53:40;;;;;;;1.67;0.90;;;;;;;23.04;56.00;98372.84;4990305;28;20189;-69
2023/10/21 09:56:10;;;;;;;1.38;0.65;;;;;;;22.28;65.45;98371.56;4992660;28;20258;-70
2023/10/21 09:58:37;;;;;;;2.75;1.00;;;;;;;20.59;81.86;98377.22;4990814;28;20494;-69
2023/10/21 10:01:05;;;;;;;1.88;0.68;;;;;;;21.04;83.70;98376.88;4979174;28;20227;-70
2023/10/21 10:03:34;;;;;;;2.28;0.80;;;;;;;21.57;81.25;98381.56;4988714;28;20321;-69
2023/10/21 10:06:04;;;;;;;1.70;0.88;;;;;;;21.76;78.56;98373.94;4979263;28;20591;-70
2023/10/21 10:08:34;;;;;;;1.05;0.75;;;;;;;20.43;84.52;98388.75;4979037;28;20191;-70
2023/10/21 10:11:10;;;;;;;3.47;0.70;;;;;;;19.61;94.79;98382.97;4983389;28;20311;-70
2023/10/21 10:13:42;;;;;;;3.05;0.95;;;;;;;19.14;100.00;98384.22;4990650;28;20627;-70
2023/10/21 10:16:22;;;;;;;2.25;1.08;;;;;;;18.32;100.00;98386.63;4988091;28;20669;-70
2023/10/21 10:18:51;;;;;;;4.13;1.03;;;;;;;17.87;100.00;98385.63;4990961;28;20301;-70
2023/10/21 10:21:18;;;;;;;2.20;0.90;;;;;;;16.75;100.00;98382.16;4983663;28;20265;-69
2023/10/21 10:23:58;;;;;;;2.53;1.00;;;;;;;16.90;100.00;98382.28;4986962;28;20207;-69
2023/10/21 10:26:36;;;;;;;3.87;1.23;;;;;;;16.69;100.00;98387.22;4979067;28;20698;-70
2023/10/21 10:29:19;;;;;;;3.17;0.97;;;;;;;16.50;100.00;98396.19;5007095;28;20545;-71
2023/10/21 10:31:47;;;;;;;1.13;0.70;;;;;;;16.47;100.00;98394.69;4994219;28;20225;-71
2023/10/21 10:34:13;;;;;;;2.47;0.97;;;;;;;16.49;100.00;98397.94;4993838;28;20639;-69
2023/10/21 10:36:38;;;;;;;2.53;1.20;;;;;;;16.57;100.00;98390.16;5006813;28;20183;-69
2023/10/21 10:39:04;;;;;;;2.43;0.93;;;;;;;16.32;100.00;98391.94;4990309;28;20179;-69
2023/10/21 10:41:31;;;;;;;3.37;1.10;;;;;;;16.25;100.00;98386.59;4980858;28;20231;-70
2023/10/21 10:44:03;;;;;;;3.60;0.97;;;;;;;16.39;100.00;98384.34;4991664;28;20674;-69
2023/10/21 10:46:31;;;;;;;3.10;0.97;;;;;;;16.66;100.00;98393.56;4990444;28;20187;-69
2023/10/21 10:49:05;;;;;;;2.23;1.00;;;;;;;16.72;100.00;98398.09;4991827;28;20236;-70
2023/10/21 10:51:44;;;;;;;3.20;1.10;;;;;;;16.72;100.00;98402.44;4994303;28;20989;-70
2023/10/21 10:54:15;;;;;;;1.90;0.90;;;;;;;16.64;100.00;98395.50;4994376;28;20187;-70
2023/10/21 10:56:49;;;;;;;2.80;0.90;;;;;;;16.66;100.00;98390.97;4991650;28;20179;-70
2023/10/21 10:59:17;;;;;;;2.53;1.03;;;;;;;16.65;100.00;98396.31;4992066;28;20187;-71
2023/10/21 11:01:42;;;;;;;2.33;0.83;;;;;;;16.95;100.00;98389.63;4982748;28;20238;-70
2023/10/21 11:04:08;;;;;;;3.63;1.00;;;;;;;17.21;100.00;98383.38;4994600;28;20246;-70
2023/10/21 11:06:35;;;;;;;2.67;1.17;;;;;;;17.58;100.00;98384.50;4990274;28;20179;-70
2023/10/21 11:09:04;;;;;;;3.23;1.10;;;;;;;17.55;100.00;98395.22;4990676;28;20238;-71
2023/10/21 11:11:43;;;;;;;4.10;0.90;;;;;;;17.56;100.00;98391.66;4982806;28;20219;-70
2023/10/21 11:14:10;;;;;;;3.47;0.80;;;;;;;17.78;100.00;98392.66;4989800;28;20184;-71
2023/10/21 11:16:35;;;;;;;2.13;0.93;;;;;;;17.50;100.00;98400.94;4991801;28;20231;-71
2023/10/21 11:19:01;;;;;;;2.23;1.10;;;;;;;17.46;100.00;98394.47;4991647;28;20215;-70
2023/10/21 11:21:39;;;;;;;4.73;1.20;;;;;;;17.48;100.00;98396.91;4992082;28;20300;-71
2023/10/21 11:24:05;;;;;;;1.67;0.90;;;;;;;17.48;100.00;98386.50;4998098;28;20640;-72